Погода Нежинна неделю

Минская область, Белоруссия

25 - 31 мая
  • 25мая
    Сегодня
    +10°
    +26°
    Небольшая облачность
    ВремяПогодаТемператураВлажностьДавлениеВетер, м/сВероятность осадков
    00:00Небольшая облачность+16°C63 %759 мм4.1 м/с2 %
    03:00Ясно и безоблачно+14°C62 %760 мм4.3 м/с2 %
    06:00Облачно с прояснениями+13°C67 %760 мм3.8 м/с2 %
    09:00Небольшая облачность+20°C62 %760 мм3.9 м/с3 %
    12:00Небольшая облачность+24°C46 %760 мм4.4 м/с2 %
    15:00Небольшая облачность+26°C38 %759 мм5.4 м/с2 %
    18:00Облачно с прояснениями+25°C39 %758 мм4.0 м/с2 %
    21:00Облачно с прояснениями+20°C53 %758 мм3.0 м/с2 %
  • 26мая
    Воскресенье
    +11°
    +25°
    Облачно с прояснениями
    ВремяПогодаТемператураВлажностьДавлениеВетер, м/сВероятность осадков
    00:00Облачно с прояснениями+15°C57 %758 мм2.9 м/с2 %
    03:00Ясно и безоблачно+13°C63 %758 мм2.6 м/с2 %
    06:00Ясно и безоблачно+11°C70 %759 мм2.0 м/с2 %
    09:00Практически безоблачно+18°C61 %759 мм1.9 м/с2 %
    12:00Небольшая облачность+23°C36 %759 мм2.6 м/с2 %
    15:00Облачно с прояснениями+24°C36 %759 мм2.5 м/с2 %
    18:00Ясно и безоблачно+24°C38 %758 мм2.8 м/с2 %
    21:00Облачно с прояснениями+19°C65 %758 мм2.5 м/с2 %
  • 27мая
    Понедельник
    +13°
    +27°
    Ясно и безоблачно
    ВремяПогодаТемператураВлажностьДавлениеВетер, м/сВероятность осадков
    00:00Облачно с прояснениями+13°C72 %758 мм2.9 м/с2 %
    03:00Облачно с прояснениями+12°C75 %758 мм1.8 м/с2 %
    06:00Облачно с прояснениями+13°C75 %758 мм1.8 м/с2 %
    09:00Ясно и безоблачно+20°C61 %759 мм1.9 м/с2 %
    12:00Практически безоблачно+25°C40 %759 мм3.3 м/с2 %
    15:00Ясно и безоблачно+26°C36 %758 мм3.0 м/с2 %
    18:00Ясно и безоблачно+26°C39 %757 мм2.4 м/с3 %
    21:00Ясно и безоблачно+21°C71 %756 мм2.5 м/с2 %
  • 28мая
    Вторник
    +14°
    +26°
    Ясно и безоблачно
    ВремяПогодаТемператураВлажностьДавлениеВетер, м/сВероятность осадков
    00:00Ясно и безоблачно+17°C65 %756 мм2.4 м/с2 %
    03:00Ясно и безоблачно+15°C79 %756 мм2.2 м/с2 %
    06:00Ясно и безоблачно+15°C73 %755 мм2.6 м/с2 %
    09:00Ясно и безоблачно+20°C65 %756 мм2.2 м/с2 %
    12:00Практически безоблачно+25°C33 %755 мм3.7 м/с5 %
    15:00Ясно и безоблачно+24°C47 %754 мм4.6 м/с12 %
    18:00Практически безоблачно+26°C39 %753 мм3.0 м/с11 %
    21:00Практически безоблачно+22°C57 %752 мм4.7 м/с2 %
  • 29мая
    Среда
    +14°
    +27°
    Небольшая облачность
    ВремяПогодаТемператураВлажностьДавлениеВетер, м/сВероятность осадков
    00:00Облачно с прояснениями+19°C75 %752 мм2.3 м/с2 %
    03:00Облачно с прояснениями+14°C88 %752 мм2.4 м/с2 %
    06:00Ясно и безоблачно+15°C81 %751 мм2.5 м/с2 %
    09:00Облачно с прояснениями+20°C66 %751 мм2.4 м/с3 %
    12:00Практически безоблачно+26°C38 %751 мм3.7 м/с7 %
    15:00Небольшая облачность+27°C31 %750 мм4.2 м/с25 %
    18:00Облачно с прояснениями+25°C37 %749 мм3.6 м/с31 %
    21:00Облачно с прояснениями+21°C56 %749 мм2.2 м/с5 %
Мы используем cookies
Соглашаюсь